createdAt,value
2023-04-18T00:01:54.649Z,96524.16
2023-04-18T00:04:21.594Z,96522.03
2023-04-18T00:06:48.595Z,96514.88
2023-04-18T00:09:15.161Z,96514.81
2023-04-18T00:11:41.788Z,96509.91
2023-04-18T00:14:08.336Z,96513.59
2023-04-18T00:16:34.950Z,96514.72
2023-04-18T00:19:01.509Z,96512.50
2023-04-18T00:21:28.111Z,96513.59
2023-04-18T00:23:54.646Z,96508.72
2023-04-18T00:26:21.190Z,96507.66
2023-04-18T00:28:47.732Z,96503.78
2023-04-18T00:31:14.336Z,96508.63
2023-04-18T00:33:40.925Z,96502.53
2023-04-18T00:36:07.467Z,96496.53
2023-04-18T00:38:33.992Z,96502.97
2023-04-18T00:41:00.557Z,96499.94
2023-04-18T00:43:27.134Z,96501.41
2023-04-18T00:45:53.706Z,96504.56
2023-04-18T00:48:20.236Z,96512.31
2023-04-18T00:50:46.774Z,96504.91
2023-04-18T00:53:13.307Z,96509.06
2023-04-18T00:55:39.835Z,96506.06
2023-04-18T00:58:06.373Z,96510.88
2023-04-18T01:00:32.933Z,96504.78
2023-04-18T01:02:59.659Z,96505.97
2023-04-18T01:05:26.328Z,96504.78
2023-04-18T01:07:52.865Z,96505.78
2023-04-18T01:10:19.423Z,96504.84
2023-04-18T01:12:45.964Z,96505.44
2023-04-18T01:15:12.512Z,96500.56
2023-04-18T01:17:39.130Z,96505.13
2023-04-18T01:20:05.693Z,96508.97
2023-04-18T01:22:32.254Z,96501.13
2023-04-18T01:24:58.825Z,96500.28
2023-04-18T01:27:25.395Z,96504.00
2023-04-18T01:29:51.981Z,96507.44
2023-04-18T01:32:18.527Z,96502.88
2023-04-18T01:34:45.061Z,96497.81
2023-04-18T01:37:11.597Z,96490.19
2023-04-18T01:39:38.126Z,96490.97
2023-04-18T01:42:04.667Z,96483.38
2023-04-18T01:44:31.258Z,96487.69
2023-04-18T01:46:57.915Z,96484.94
2023-04-18T01:49:24.516Z,96481.00
2023-04-18T01:51:51.061Z,96479.16
2023-04-18T01:54:17.617Z,96479.94
2023-04-18T01:56:44.212Z,96484.50
2023-04-18T01:59:10.769Z,96475.81
2023-04-18T02:01:37.307Z,96478.81
2023-04-18T02:04:03.957Z,96481.09
2023-04-18T02:06:30.512Z,96479.81
2023-04-18T02:08:57.084Z,96479.94
2023-04-18T02:11:23.674Z,96482.53
2023-04-18T02:13:50.228Z,96480.03
2023-04-18T02:16:16.829Z,96484.09
2023-04-18T02:18:43.366Z,96486.47
2023-04-18T02:21:09.892Z,96484.75
2023-04-18T02:23:36.447Z,96489.81
2023-04-18T02:26:02.994Z,96491.63
2023-04-18T02:28:29.542Z,96484.44
2023-04-18T02:30:56.100Z,96490.88
2023-04-18T02:33:22.657Z,96486.66
2023-04-18T02:35:49.195Z,96484.44
2023-04-18T02:38:15.736Z,96480.38
2023-04-18T02:40:42.342Z,96481.44
2023-04-18T02:43:08.886Z,96491.22
2023-04-18T02:45:35.482Z,96488.97
2023-04-18T02:48:02.169Z,96487.09
2023-04-18T02:50:28.764Z,96490.19
2023-04-18T02:52:55.308Z,96490.19
2023-04-18T02:55:21.868Z,96488.56
2023-04-18T02:57:48.448Z,96482.53
2023-04-18T03:00:14.987Z,96487.78
2023-04-18T03:02:41.673Z,96478.59
2023-04-18T03:05:08.381Z,96480.59
2023-04-18T03:07:35.006Z,96478.25
2023-04-18T03:10:01.603Z,96477.56
2023-04-18T03:12:28.264Z,96484.44
2023-04-18T03:14:54.836Z,96476.09
2023-04-18T03:17:21.408Z,96476.38
2023-04-18T03:19:47.985Z,96477.31
2023-04-18T03:22:14.569Z,96475.75
2023-04-18T03:24:41.136Z,96480.59
2023-04-18T03:27:07.709Z,96478.88
2023-04-18T03:29:34.276Z,96478.16
2023-04-18T03:32:00.897Z,96468.66
2023-04-18T03:34:27.484Z,96479.53
2023-04-18T03:36:54.030Z,96474.88
2023-04-18T03:39:20.588Z,96476.53
2023-04-18T03:41:47.143Z,96477.81
2023-04-18T03:44:13.912Z,96478.25
2023-04-18T03:46:40.726Z,96472.09
2023-04-18T03:49:07.313Z,96464.50
2023-04-18T03:51:33.866Z,96468.38
2023-04-18T03:54:00.412Z,96468.28
2023-04-18T03:56:27.008Z,96469.50
2023-04-18T03:58:53.577Z,96470.44
2023-04-18T04:01:20.153Z,96463.22
2023-04-18T04:03:46.861Z,96463.34
2023-04-18T04:06:13.553Z,96475.59
2023-04-18T04:08:40.100Z,96471.53
2023-04-18T04:11:06.610Z,96468.72
2023-04-18T04:13:33.170Z,96468.22
2023-04-18T04:15:59.775Z,96464.09
2023-04-18T04:18:26.386Z,96476.78
2023-04-18T04:20:52.933Z,96473.44
2023-04-18T04:23:19.499Z,96477.88
2023-04-18T04:25:46.046Z,96476.09
2023-04-18T04:28:12.591Z,96479.63
2023-04-18T04:30:39.157Z,96484.69
2023-04-18T04:33:05.720Z,96476.72
2023-04-18T04:35:32.297Z,96482.53
2023-04-18T04:37:58.842Z,96478.25
2023-04-18T04:40:25.449Z,96487.84
2023-04-18T04:42:52.010Z,96483.84
2023-04-18T04:45:18.557Z,96482.94
2023-04-18T04:47:45.221Z,96482.03
2023-04-18T04:50:11.804Z,96481.69
2023-04-18T04:52:38.356Z,96477.47
2023-04-18T04:55:04.980Z,96477.75
2023-04-18T04:57:31.546Z,96478.94
2023-04-18T04:59:58.096Z,96479.09
2023-04-18T05:02:24.782Z,96474.63
2023-04-18T05:04:51.491Z,96478.25
2023-04-18T05:07:18.035Z,96474.47
2023-04-18T05:09:44.601Z,96480.22
2023-04-18T05:12:11.131Z,96478.44
2023-04-18T05:14:40.487Z,96478.06
2023-04-18T05:17:07.058Z,96475.66
2023-04-18T05:19:33.600Z,96482.97
2023-04-18T05:22:00.142Z,96486.41
2023-04-18T05:24:26.698Z,96485.69
2023-04-18T05:26:53.247Z,96491.28
2023-04-18T05:29:19.785Z,96497.06
2023-04-18T05:31:46.327Z,96487.69
2023-04-18T05:34:13.062Z,96492.66
2023-04-18T05:36:39.810Z,96496.59
2023-04-18T05:39:06.351Z,96499.06
2023-04-18T05:41:32.923Z,96502.00
2023-04-18T05:44:05.242Z,96505.00
2023-04-18T05:46:32.554Z,96499.34
2023-04-18T05:48:59.167Z,96501.72
2023-04-18T05:51:25.723Z,96501.63
2023-04-18T05:53:52.280Z,96500.09
2023-04-18T05:56:18.835Z,96498.97
2023-04-18T05:58:45.389Z,96498.91
2023-04-18T06:01:11.970Z,96500.38
2023-04-18T06:03:38.707Z,96503.91
2023-04-18T06:06:05.320Z,96503.03
2023-04-18T06:08:31.871Z,96507.56
2023-04-18T06:10:58.434Z,96503.03
2023-04-18T06:13:24.974Z,96514.03
2023-04-18T06:15:51.580Z,96505.34
2023-04-18T06:18:18.161Z,96515.66
2023-04-18T06:20:44.718Z,96511.09
2023-04-18T06:23:11.268Z,96509.28
2023-04-18T06:25:37.800Z,96517.34
2023-04-18T06:28:04.351Z,96514.53
2023-04-18T06:30:30.928Z,96511.28
2023-04-18T06:32:57.572Z,96515.81
2023-04-18T06:35:25.970Z,96513.56
2023-04-18T06:37:53.194Z,96513.56
2023-04-18T06:40:19.758Z,96515.03
2023-04-18T06:42:46.301Z,96520.09
2023-04-18T06:45:12.852Z,96513.72
2023-04-18T06:47:39.408Z,96515.38
2023-04-18T06:50:05.965Z,96522.66
2023-04-18T06:52:32.490Z,96513.38
2023-04-18T06:54:59.042Z,96514.94
2023-04-18T06:57:25.600Z,96523.00
2023-04-18T06:59:52.168Z,96522.72
2023-04-18T07:02:18.867Z,96514.78
2023-04-18T07:04:45.585Z,96518.88
2023-04-18T07:07:12.137Z,96515.94
2023-04-18T07:09:38.699Z,96517.44
2023-04-18T07:12:05.233Z,96524.69
2023-04-18T07:14:33.558Z,96524.88
2023-04-18T07:17:00.743Z,96516.13
2023-04-18T07:19:27.319Z,96516.63
2023-04-18T07:21:53.864Z,96513.69
2023-04-18T07:24:20.423Z,96518.50
2023-04-18T07:26:46.966Z,96518.22
2023-04-18T07:29:13.516Z,96512.13
2023-04-18T07:31:40.096Z,96517.13
2023-04-18T07:34:06.638Z,96515.97
2023-04-18T07:36:33.188Z,96517.53
2023-04-18T07:38:59.744Z,96520.28
2023-04-18T07:41:26.392Z,96519.16
2023-04-18T07:43:52.940Z,96524.81
2023-04-18T07:46:19.551Z,96525.59
2023-04-18T07:48:46.132Z,96520.53
2023-04-18T07:51:12.695Z,96524.91
2023-04-18T07:53:39.269Z,96526.09
2023-04-18T07:56:05.823Z,96521.28
2023-04-18T07:58:32.376Z,96519.22
2023-04-18T08:00:58.960Z,96527.16
2023-04-18T08:03:25.674Z,96530.66
2023-04-18T08:05:52.387Z,96523.00
2023-04-18T08:08:18.938Z,96523.63
2023-04-18T08:10:45.569Z,96529.88
2023-04-18T08:13:12.133Z,96527.94
2023-04-18T08:15:38.819Z,96529.66
2023-04-18T08:18:05.426Z,96529.19
2023-04-18T08:20:31.994Z,96524.91
2023-04-18T08:23:06.850Z,96530.88
2023-04-18T08:25:34.368Z,96521.81
2023-04-18T08:28:00.934Z,96530.09
2023-04-18T08:30:27.472Z,96531.69
2023-04-18T08:32:54.125Z,96520.56
2023-04-18T08:35:20.776Z,96529.03
2023-04-18T08:37:47.338Z,96523.72
2023-04-18T08:40:13.917Z,96532.53
2023-04-18T08:42:40.467Z,96526.88
2023-04-18T08:45:07.064Z,96527.59
2023-04-18T08:47:33.658Z,96535.16
2023-04-18T08:50:00.231Z,96529.81
2023-04-18T08:52:26.780Z,96526.09
2023-04-18T08:54:53.368Z,96524.41
2023-04-18T08:57:19.954Z,96527.16
2023-04-18T08:59:48.918Z,96532.03
2023-04-18T09:02:17.003Z,96521.19
2023-04-18T09:04:43.565Z,96522.75
2023-04-18T09:07:10.100Z,96520.44
2023-04-18T09:09:36.664Z,96527.66
2023-04-18T09:12:03.224Z,96516.66
2023-04-18T09:14:29.776Z,96516.56
2023-04-18T09:16:56.388Z,96518.47
2023-04-18T09:19:22.955Z,96529.13
2023-04-18T09:21:49.508Z,96525.69
2023-04-18T09:24:16.073Z,96526.09
2023-04-18T09:26:42.667Z,96521.13
2023-04-18T09:29:09.235Z,96520.19
2023-04-18T09:31:35.872Z,96523.81
2023-04-18T09:34:02.475Z,96520.09
2023-04-18T09:36:29.133Z,96516.22
2023-04-18T09:38:57.076Z,96524.91
2023-04-18T09:41:23.991Z,96517.69
2023-04-18T09:43:50.622Z,96527.66
2023-04-18T09:46:17.194Z,96525.84
2023-04-18T09:48:43.775Z,96525.03
2023-04-18T09:51:10.348Z,96522.31
2023-04-18T09:53:36.922Z,96528.41
2023-04-18T09:56:03.483Z,96520.94
2023-04-18T09:58:30.065Z,96516.41
2023-04-18T10:00:56.657Z,96519.13
2023-04-18T10:03:23.305Z,96516.41
2023-04-18T10:05:50.008Z,96519.72
2023-04-18T10:08:16.600Z,96518.63
2023-04-18T10:10:43.150Z,96516.41
2023-04-18T10:13:09.693Z,96522.94
2023-04-18T10:15:36.296Z,96517.16
2023-04-18T10:18:05.811Z,96519.06
2023-04-18T10:20:32.904Z,96518.97
2023-04-18T10:22:59.457Z,96518.34
2023-04-18T10:25:26.021Z,96518.72
2023-04-18T10:27:52.578Z,96517.94
2023-04-18T10:30:19.119Z,96520.31
2023-04-18T10:32:45.756Z,96520.75
2023-04-18T10:35:12.351Z,96515.44
2023-04-18T10:37:38.915Z,96512.38
2023-04-18T10:40:05.460Z,96512.38
2023-04-18T10:42:32.019Z,96512.38
2023-04-18T10:44:58.576Z,96512.06
2023-04-18T10:47:25.213Z,96506.72
2023-04-18T10:49:51.824Z,96505.59
2023-04-18T10:52:18.397Z,96505.59
2023-04-18T10:54:44.952Z,96505.25
2023-04-18T10:57:11.522Z,96501.81
2023-04-18T10:59:38.071Z,96501.88
2023-04-18T11:02:04.686Z,96499.16
2023-04-18T11:04:31.383Z,96491.56
2023-04-18T11:06:58.020Z,96487.78
2023-04-18T11:09:24.610Z,96489.66
2023-04-18T11:11:51.179Z,96491.22
2023-04-18T11:14:17.944Z,96486.66
2023-04-18T11:16:44.673Z,96488.97
2023-04-18T11:19:11.257Z,96488.59
2023-04-18T11:21:37.801Z,96486.22
2023-04-18T11:24:04.381Z,96480.59
2023-04-18T11:26:30.946Z,96484.81
2023-04-18T11:28:57.490Z,96479.09
2023-04-18T11:31:24.087Z,96480.91
2023-04-18T11:33:50.677Z,96481.66
2023-04-18T11:36:17.226Z,96479.88
2023-04-18T11:38:43.785Z,96479.00
2023-04-18T11:41:10.377Z,96474.03
2023-04-18T11:43:36.933Z,96480.97
2023-04-18T11:46:03.592Z,96481.31
2023-04-18T11:48:30.188Z,96478.72
2023-04-18T11:50:56.745Z,96481.03
2023-04-18T11:53:23.302Z,96476.06
2023-04-18T11:55:49.861Z,96479.88
2023-04-18T11:58:16.451Z,96468.81
2023-04-18T12:00:43.008Z,96471.09
2023-04-18T12:03:12.685Z,96474.09
2023-04-18T12:05:40.930Z,96466.88
2023-04-18T12:08:07.623Z,96464.50
2023-04-18T12:10:34.169Z,96474.88
2023-04-18T12:13:00.728Z,96465.00
2023-04-18T12:15:27.343Z,96472.06
2023-04-18T12:17:54.038Z,96477.25
2023-04-18T12:20:20.685Z,96474.78
2023-04-18T12:22:47.258Z,96470.66
2023-04-18T12:25:13.784Z,96463.00
2023-04-18T12:27:40.342Z,96460.00
2023-04-18T12:30:06.877Z,96465.69
2023-04-18T12:32:33.483Z,96465.19
2023-04-18T12:35:00.048Z,96464.50
2023-04-18T12:37:26.602Z,96457.69
2023-04-18T12:39:53.161Z,96457.63
2023-04-18T12:42:19.718Z,96457.28
2023-04-18T12:44:47.956Z,96453.75
2023-04-18T12:47:14.616Z,96455.72
2023-04-18T12:49:41.177Z,96458.31
2023-04-18T12:52:07.728Z,96455.59
2023-04-18T12:54:35.186Z,96457.97
2023-04-18T12:57:03.273Z,96456.72
2023-04-18T12:59:30.019Z,96458.31
2023-04-18T13:01:56.656Z,96457.19
2023-04-18T13:04:23.469Z,96452.16
2023-04-18T13:06:50.125Z,96456.41
2023-04-18T13:09:16.697Z,96449.81
2023-04-18T13:11:43.268Z,96446.75
2023-04-18T13:14:09.831Z,96452.97
2023-04-18T13:16:36.459Z,96444.94
2023-04-18T13:19:03.080Z,96446.81
2023-04-18T13:21:29.634Z,96450.25
2023-04-18T13:23:56.173Z,96451.38
2023-04-18T13:26:22.763Z,96447.59
2023-04-18T13:28:49.320Z,96447.59
2023-04-18T13:31:17.050Z,96446.19
2023-04-18T13:33:43.831Z,96451.38
2023-04-18T13:36:10.379Z,96446.00
2023-04-18T13:38:37.401Z,96451.38
2023-04-18T13:41:12.261Z,96455.94
2023-04-18T13:43:39.686Z,96449.16
2023-04-18T13:46:06.298Z,96451.72
2023-04-18T13:48:32.926Z,96457.06
2023-04-18T13:50:59.508Z,96464.31
2023-04-18T13:53:26.076Z,96457.91
2023-04-18T13:55:52.630Z,96454.81
2023-04-18T13:58:19.188Z,96462.03
2023-04-18T14:00:45.773Z,96456.72
2023-04-18T14:03:12.413Z,96450.53
2023-04-18T14:05:39.048Z,96448.31
2023-04-18T14:08:05.608Z,96448.03
2023-04-18T14:10:32.158Z,96452.88
2023-04-18T14:12:58.704Z,96454.81
2023-04-18T14:15:25.317Z,96452.16
2023-04-18T14:17:51.892Z,96446.81
2023-04-18T14:20:18.477Z,96449.47
2023-04-18T14:22:45.055Z,96444.59
2023-04-18T14:25:11.634Z,96441.06
2023-04-18T14:27:38.178Z,96445.66
2023-04-18T14:30:04.733Z,96442.25
2023-04-18T14:32:31.281Z,96446.38
2023-04-18T14:34:57.831Z,96442.22
2023-04-18T14:37:24.399Z,96445.28
2023-04-18T14:39:50.999Z,96437.75
2023-04-18T14:42:17.576Z,96441.16
2023-04-18T14:44:44.121Z,96440.44
2023-04-18T14:47:10.756Z,96438.53
2023-04-18T14:49:37.473Z,96433.22
2023-04-18T14:52:04.019Z,96440.81
2023-04-18T14:54:32.492Z,96442.97
2023-04-18T14:56:59.303Z,96438.13
2023-04-18T14:59:25.880Z,96443.22
2023-04-18T15:01:52.456Z,96442.41
2023-04-18T15:04:19.421Z,96436.31
2023-04-18T15:06:46.461Z,96447.25
2023-04-18T15:09:13.018Z,96442.97
2023-04-18T15:11:39.584Z,96444.63
2023-04-18T15:14:06.144Z,96437.06
2023-04-18T15:16:32.804Z,96443.88
2023-04-18T15:18:59.404Z,96445.91
2023-04-18T15:21:25.948Z,96443.88
2023-04-18T15:23:52.490Z,96446.66
2023-04-18T15:26:19.043Z,96438.19
2023-04-18T15:28:45.594Z,96442.06
2023-04-18T15:31:12.139Z,96445.06
2023-04-18T15:33:38.696Z,96439.41
2023-04-18T15:36:05.285Z,96450.81
2023-04-18T15:38:33.119Z,96448.91
2023-04-18T15:40:59.893Z,96451.19
2023-04-18T15:43:26.444Z,96440.91
2023-04-18T15:45:53.044Z,96448.50
2023-04-18T15:48:19.628Z,96456.22
2023-04-18T15:50:46.182Z,96447.78
2023-04-18T15:53:12.761Z,96461.59
2023-04-18T15:55:39.323Z,96458.09
2023-04-18T15:58:05.865Z,96453.94
2023-04-18T16:00:32.406Z,96452.44
2023-04-18T16:02:59.044Z,96464.13
2023-04-18T16:05:25.684Z,96468.44
2023-04-18T16:07:52.238Z,96456.91
2023-04-18T16:10:18.789Z,96455.50
2023-04-18T16:12:45.359Z,96453.59
2023-04-18T16:15:11.901Z,96453.22
2023-04-18T16:17:38.511Z,96454.66
2023-04-18T16:20:05.176Z,96450.69
2023-04-18T16:22:31.731Z,96456.63
2023-04-18T16:24:58.304Z,96453.56
2023-04-18T16:27:24.902Z,96453.84
2023-04-18T16:29:51.454Z,96459.16
2023-04-18T16:32:18.060Z,96458.09
2023-04-18T16:34:44.638Z,96463.09
2023-04-18T16:37:11.209Z,96451.28
2023-04-18T16:39:37.795Z,96454.44
2023-04-18T16:42:04.330Z,96455.59
2023-04-18T16:44:30.861Z,96456.63
2023-04-18T16:46:57.511Z,96453.25
2023-04-18T16:49:24.086Z,96451.03
2023-04-18T16:51:50.641Z,96457.81
2023-04-18T16:54:17.216Z,96456.34
2023-04-18T16:56:43.770Z,96450.31
2023-04-18T16:59:10.335Z,96458.66
2023-04-18T17:01:36.886Z,96461.59
2023-04-18T17:04:03.605Z,96457.97
2023-04-18T17:06:31.566Z,96470.09
2023-04-18T17:08:58.938Z,96464.75
2023-04-18T17:11:25.517Z,96468.53
2023-04-18T17:13:52.069Z,96466.25
2023-04-18T17:16:18.632Z,96476.13
2023-04-18T17:18:45.204Z,96474.63
2023-04-18T17:21:11.755Z,96478.09
2023-04-18T17:23:38.307Z,96487.97
2023-04-18T17:26:04.875Z,96483.34
2023-04-18T17:28:31.419Z,96486.44
2023-04-18T17:30:57.968Z,96486.31
2023-04-18T17:33:24.510Z,96495.19
2023-04-18T17:35:51.087Z,96494.03
2023-04-18T17:38:17.640Z,96497.47
2023-04-18T17:40:44.199Z,96493.19
2023-04-18T17:43:10.757Z,96495.09
2023-04-18T17:45:37.364Z,96507.22
2023-04-18T17:48:04.047Z,96507.97
2023-04-18T17:50:30.696Z,96510.69
2023-04-18T17:52:57.268Z,96515.19
2023-04-18T17:55:23.849Z,96523.19
2023-04-18T17:57:50.428Z,96525.88
2023-04-18T18:00:16.977Z,96523.19
2023-04-18T18:02:43.690Z,96533.88
2023-04-18T18:05:10.322Z,96540.25
2023-04-18T18:07:36.885Z,96538.00
2023-04-18T18:10:03.951Z,96538.69
2023-04-18T18:12:30.489Z,96541.81
2023-04-18T18:14:57.061Z,96544.38
2023-04-18T18:17:23.633Z,96539.53
2023-04-18T18:19:50.194Z,96536.81
2023-04-18T18:22:16.745Z,96541.72
2023-04-18T18:24:43.327Z,96553.16
2023-04-18T18:27:09.889Z,96550.81
2023-04-18T18:29:36.450Z,96554.63
2023-04-18T18:32:02.989Z,96554.97
2023-04-18T18:34:29.533Z,96556.53
2023-04-18T18:36:56.109Z,96565.28
2023-04-18T18:39:22.682Z,96567.19
2023-04-18T18:41:49.236Z,96575.19
2023-04-18T18:44:15.780Z,96569.84
2023-04-18T18:46:43.273Z,96565.28
2023-04-18T18:49:10.036Z,96577.06
2023-04-18T18:51:36.572Z,96579.63
2023-04-18T18:54:03.142Z,96579.41
2023-04-18T18:56:29.711Z,96580.56
2023-04-18T18:58:56.285Z,96581.97
2023-04-18T19:01:22.951Z,96587.28
2023-04-18T19:03:49.739Z,96583.09
2023-04-18T19:06:16.408Z,96583.09
2023-04-18T19:08:43.005Z,96592.56
2023-04-18T19:11:09.591Z,96586.78
2023-04-18T19:13:36.164Z,96592.13
2023-04-18T19:16:02.770Z,96597.47
2023-04-18T19:18:29.350Z,96593.75
2023-04-18T19:20:55.897Z,96594.88
2023-04-18T19:23:22.447Z,96597.19
2023-04-18T19:25:49.025Z,96600.13
2023-04-18T19:28:15.634Z,96603.91
2023-04-18T19:30:42.228Z,96601.13
2023-04-18T19:33:08.815Z,96603.47
2023-04-18T19:35:37.688Z,96600.47
2023-04-18T19:38:04.515Z,96608.78
2023-04-18T19:40:31.049Z,96601.25
2023-04-18T19:42:57.625Z,96607.66
2023-04-18T19:45:24.175Z,96606.47
2023-04-18T19:47:50.877Z,96606.56
2023-04-18T19:50:17.536Z,96605.13
2023-04-18T19:52:44.097Z,96609.56
2023-04-18T19:55:10.677Z,96609.06
2023-04-18T19:57:37.224Z,96609.13
2023-04-18T20:00:03.773Z,96603.47
2023-04-18T20:02:30.490Z,96606.47
2023-04-18T20:04:57.284Z,96602.97
2023-04-18T20:07:26.160Z,96608.78
2023-04-18T20:09:52.936Z,96612.97
2023-04-18T20:12:19.480Z,96617.56
2023-04-18T20:14:46.053Z,96621.78
2023-04-18T20:17:12.594Z,96618.31
2023-04-18T20:19:39.133Z,96621.69
2023-04-18T20:22:05.720Z,96624.78
2023-04-18T20:24:32.407Z,96623.56
2023-04-18T20:26:59.001Z,96628.91
2023-04-18T20:29:25.578Z,96624.00
2023-04-18T20:31:52.154Z,96625.13
2023-04-18T20:34:18.732Z,96621.69
2023-04-18T20:36:45.300Z,96621.97
2023-04-18T20:39:12.008Z,96631.91
2023-04-18T20:41:38.643Z,96627.78
2023-04-18T20:44:05.265Z,96628.13
2023-04-18T20:46:31.902Z,96628.84
2023-04-18T20:48:58.477Z,96635.78
2023-04-18T20:51:25.038Z,96649.38
2023-04-18T20:53:51.613Z,96631.91
2023-04-18T20:56:18.211Z,96644.81
2023-04-18T20:58:44.781Z,96641.28
2023-04-18T21:01:11.381Z,96641.72
2023-04-18T21:03:38.083Z,96635.72
2023-04-18T21:06:04.778Z,96640.78
2023-04-18T21:08:31.341Z,96639.13
2023-04-18T21:10:57.904Z,96646.09
2023-04-18T21:13:24.485Z,96640.16
2023-04-18T21:15:51.115Z,96646.00
2023-04-18T21:18:17.716Z,96640.28
2023-04-18T21:20:44.270Z,96646.28
2023-04-18T21:23:10.831Z,96639.06
2023-04-18T21:25:37.384Z,96654.72
2023-04-18T21:28:03.940Z,96645.50
2023-04-18T21:30:30.512Z,96653.09
2023-04-18T21:32:57.154Z,96652.38
2023-04-18T21:35:24.922Z,96650.16
2023-04-18T21:40:18.228Z,96652.38
2023-04-18T21:42:44.772Z,96649.13
2023-04-18T21:45:11.325Z,96651.88
2023-04-18T21:47:37.898Z,96657.13
2023-04-18T21:50:04.517Z,96661.31
2023-04-18T21:52:31.104Z,96664.59
2023-04-18T21:54:57.680Z,96663.88
2023-04-18T21:57:24.256Z,96673.03
2023-04-18T21:59:50.809Z,96668.44
2023-04-18T22:02:17.428Z,96677.13
2023-04-18T22:04:44.085Z,96674.81
2023-04-18T22:07:10.695Z,96674.91
2023-04-18T22:12:03.769Z,96674.13
2023-04-18T22:14:30.304Z,96666.41
2023-04-18T22:16:56.901Z,96665.63
2023-04-18T22:19:23.491Z,96671.28
2023-04-18T22:21:50.081Z,96671.28
2023-04-18T22:24:16.886Z,96676.13
2023-04-18T22:26:43.525Z,96676.97
2023-04-18T22:29:10.091Z,96678.50
2023-04-18T22:31:36.641Z,96678.94
2023-04-18T22:34:03.213Z,96671.97
2023-04-18T22:36:29.771Z,96676.19
2023-04-18T22:38:56.332Z,96679.72
2023-04-18T22:41:22.886Z,96682.28
2023-04-18T22:43:49.440Z,96687.88
2023-04-18T22:46:16.061Z,96683.78
2023-04-18T22:48:42.684Z,96679.88
2023-04-18T22:51:09.246Z,96686.78
2023-04-18T22:53:35.792Z,96691.25
2023-04-18T22:56:02.375Z,96691.41
2023-04-18T22:58:28.911Z,96694.06
2023-04-18T23:00:55.515Z,96693.72
2023-04-18T23:03:22.312Z,96700.53
2023-04-18T23:05:49.010Z,96700.16
2023-04-18T23:08:15.606Z,96703.94
2023-04-18T23:10:42.152Z,96701.28
2023-04-18T23:13:08.716Z,96698.97
2023-04-18T23:15:35.342Z,96706.25
2023-04-18T23:18:01.984Z,96713.59
2023-04-18T23:20:28.619Z,96703.53
2023-04-18T23:22:55.194Z,96708.53
2023-04-18T23:25:21.776Z,96703.94
2023-04-18T23:27:48.347Z,96710.66
2023-04-18T23:30:14.899Z,96705.25
2023-04-18T23:32:41.523Z,96716.00
2023-04-18T23:35:08.154Z,96713.84
2023-04-18T23:37:34.697Z,96723.72
2023-04-18T23:40:01.269Z,96709.53
2023-04-18T23:42:27.844Z,96706.47
2023-04-18T23:44:54.417Z,96711.53
2023-04-18T23:47:21.048Z,96716.84
2023-04-18T23:49:47.612Z,96717.25
2023-04-18T23:52:14.182Z,96716.41
2023-04-18T23:54:40.717Z,96717.25
2023-04-18T23:57:07.313Z,96713.84
2023-04-18T23:59:33.856Z,96717.53
